Floresta da Tijuca, Brazil
Current Conditions -  °F | °C
As of 11:00 PM on Tuesday 21 Oct 2014 (Local Time) from SBRJ Reporting Station
Broken Clouds Broken Clouds  
Wind Chill: 66°   Ceiling: 3000
Heat Index: 66°   Visibility: 6mi
Dew Point: 61°   Wind: 7mph
Humidity: 83%   Direction: 190°S
Pressure: 30.18"   Gusts: NA
Location:  22.9°S, 43.21°W
Report Text: SBRJ 220100Z 19006KT 9999 BKN030 19/16 Q1022
Loading
Personal Weather Stations






























Interactive Weather Map
Tropical Storm Tracking
New forecast layout! Learn more

10-Day Weather Forecast

Advertisements
Track Severe Weather on mobile